sensor_id;sensor_type;location;lat;lon;timestamp;temperature;humidity
84114;DHT22;74483;48.846;2.358;2024-01-30T00:00:07;21.00;25.40
84114;DHT22;74483;48.846;2.358;2024-01-30T00:02:33;21.00;24.70
84114;DHT22;74483;48.846;2.358;2024-01-30T00:04:59;21.00;24.70
84114;DHT22;74483;48.846;2.358;2024-01-30T00:07:24;21.00;24.70
84114;DHT22;74483;48.846;2.358;2024-01-30T00:09:50;21.00;24.70
84114;DHT22;74483;48.846;2.358;2024-01-30T00:12:16;21.00;24.70
84114;DHT22;74483;48.846;2.358;2024-01-30T00:14:42;21.00;24.70
84114;DHT22;74483;48.846;2.358;2024-01-30T00:17:09;21.00;24.70
84114;DHT22;74483;48.846;2.358;2024-01-30T00:19:35;21.00;24.80
84114;DHT22;74483;48.846;2.358;2024-01-30T00:22:00;21.00;24.70
84114;DHT22;74483;48.846;2.358;2024-01-30T00:24:26;21.00;24.80
84114;DHT22;74483;48.846;2.358;2024-01-30T00:26:51;21.00;24.80
84114;DHT22;74483;48.846;2.358;2024-01-30T00:29:17;21.00;24.70
84114;DHT22;74483;48.846;2.358;2024-01-30T00:31:45;21.00;24.80
84114;DHT22;74483;48.846;2.358;2024-01-30T00:34:11;21.00;24.80
84114;DHT22;74483;48.846;2.358;2024-01-30T00:36:37;21.00;24.80
84114;DHT22;74483;48.846;2.358;2024-01-30T00:39:03;21.00;24.80
84114;DHT22;74483;48.846;2.358;2024-01-30T00:41:31;21.00;25.40
84114;DHT22;74483;48.846;2.358;2024-01-30T00:43:57;21.00;24.80
84114;DHT22;74483;48.846;2.358;2024-01-30T00:46:23;21.00;24.80
84114;DHT22;74483;48.846;2.358;2024-01-30T00:48:48;21.00;24.80
84114;DHT22;74483;48.846;2.358;2024-01-30T00:51:14;21.00;24.80
84114;DHT22;74483;48.846;2.358;2024-01-30T00:53:40;21.00;24.80
84114;DHT22;74483;48.846;2.358;2024-01-30T00:56:07;21.00;24.80
84114;DHT22;74483;48.846;2.358;2024-01-30T00:58:33;21.00;24.80
84114;DHT22;74483;48.846;2.358;2024-01-30T01:00:58;21.00;24.80
84114;DHT22;74483;48.846;2.358;2024-01-30T01:03:24;21.00;24.80
84114;DHT22;74483;48.846;2.358;2024-01-30T01:05:50;21.00;24.90
84114;DHT22;74483;48.846;2.358;2024-01-30T01:08:16;21.00;24.80
84114;DHT22;74483;48.846;2.358;2024-01-30T01:10:41;21.00;24.90
84114;DHT22;74483;48.846;2.358;2024-01-30T01:13:07;20.90;24.90
84114;DHT22;74483;48.846;2.358;2024-01-30T01:15:32;21.00;24.90
84114;DHT22;74483;48.846;2.358;2024-01-30T01:17:58;20.90;24.90
84114;DHT22;74483;48.846;2.358;2024-01-30T01:20:24;21.00;24.90
84114;DHT22;74483;48.846;2.358;2024-01-30T01:22:49;20.90;24.90
84114;DHT22;74483;48.846;2.358;2024-01-30T01:25:15;20.90;24.90
84114;DHT22;74483;48.846;2.358;2024-01-30T01:27:40;20.90;24.90
84114;DHT22;74483;48.846;2.358;2024-01-30T01:30:10;20.90;24.90
84114;DHT22;74483;48.846;2.358;2024-01-30T01:32:37;20.90;24.90
84114;DHT22;74483;48.846;2.358;2024-01-30T01:35:04;20.90;24.90
84114;DHT22;74483;48.846;2.358;2024-01-30T01:37:31;20.90;24.90
84114;DHT22;74483;48.846;2.358;2024-01-30T01:39:57;20.90;24.90
84114;DHT22;74483;48.846;2.358;2024-01-30T01:42:22;20.90;24.90
84114;DHT22;74483;48.846;2.358;2024-01-30T01:44:48;20.90;24.90
84114;DHT22;74483;48.846;2.358;2024-01-30T01:47:14;20.90;25.00
84114;DHT22;74483;48.846;2.358;2024-01-30T01:49:40;20.90;25.00
84114;DHT22;74483;48.846;2.358;2024-01-30T01:52:06;20.90;25.00
84114;DHT22;74483;48.846;2.358;2024-01-30T01:54:32;20.90;25.00
84114;DHT22;74483;48.846;2.358;2024-01-30T01:56:59;20.90;25.00
84114;DHT22;74483;48.846;2.358;2024-01-30T01:59:25;20.90;25.00
84114;DHT22;74483;48.846;2.358;2024-01-30T02:01:52;20.90;24.90
84114;DHT22;74483;48.846;2.358;2024-01-30T02:04:18;20.90;25.00
84114;DHT22;74483;48.846;2.358;2024-01-30T02:06:44;20.90;25.00
84114;DHT22;74483;48.846;2.358;2024-01-30T02:09:09;20.90;25.00
84114;DHT22;74483;48.846;2.358;2024-01-30T02:11:35;20.90;25.00
84114;DHT22;74483;48.846;2.358;2024-01-30T02:14:04;20.90;25.00
84114;DHT22;74483;48.846;2.358;2024-01-30T02:16:30;20.90;25.00
84114;DHT22;74483;48.846;2.358;2024-01-30T02:18:56;20.90;25.00
84114;DHT22;74483;48.846;2.358;2024-01-30T02:21:22;20.90;25.00
84114;DHT22;74483;48.846;2.358;2024-01-30T02:23:48;20.90;25.00
84114;DHT22;74483;48.846;2.358;2024-01-30T02:26:15;20.90;25.00
84114;DHT22;74483;48.846;2.358;2024-01-30T02:28:40;20.90;25.00
84114;DHT22;74483;48.846;2.358;2024-01-30T02:31:06;20.90;25.00
84114;DHT22;74483;48.846;2.358;2024-01-30T02:33:32;20.90;25.00
84114;DHT22;74483;48.846;2.358;2024-01-30T02:35:57;20.90;25.00
84114;DHT22;74483;48.846;2.358;2024-01-30T02:38:23;20.90;25.00
84114;DHT22;74483;48.846;2.358;2024-01-30T02:40:49;20.90;25.10
84114;DHT22;74483;48.846;2.358;2024-01-30T02:43:16;20.90;25.10
84114;DHT22;74483;48.846;2.358;2024-01-30T02:45:41;20.80;25.00
84114;DHT22;74483;48.846;2.358;2024-01-30T02:48:07;20.90;25.10
84114;DHT22;74483;48.846;2.358;2024-01-30T02:50:33;20.90;25.10
84114;DHT22;74483;48.846;2.358;2024-01-30T02:52:58;20.80;25.10
84114;DHT22;74483;48.846;2.358;2024-01-30T02:55:24;20.80;25.10
84114;DHT22;74483;48.846;2.358;2024-01-30T02:57:49;20.80;25.10
84114;DHT22;74483;48.846;2.358;2024-01-30T03:00:15;20.80;25.10
84114;DHT22;74483;48.846;2.358;2024-01-30T03:02:41;20.90;25.20
84114;DHT22;74483;48.846;2.358;2024-01-30T03:05:07;20.80;25.10
84114;DHT22;74483;48.846;2.358;2024-01-30T03:07:33;20.80;25.10
84114;DHT22;74483;48.846;2.358;2024-01-30T03:09:59;20.80;25.10
84114;DHT22;74483;48.846;2.358;2024-01-30T03:12:24;20.80;25.80
84114;DHT22;74483;48.846;2.358;2024-01-30T03:14:50;20.80;25.10
84114;DHT22;74483;48.846;2.358;2024-01-30T03:17:16;20.80;25.20
84114;DHT22;74483;48.846;2.358;2024-01-30T03:19:41;20.80;25.10
84114;DHT22;74483;48.846;2.358;2024-01-30T03:22:07;20.80;25.10
84114;DHT22;74483;48.846;2.358;2024-01-30T03:24:32;20.80;25.10
84114;DHT22;74483;48.846;2.358;2024-01-30T03:26:58;20.80;25.20
84114;DHT22;74483;48.846;2.358;2024-01-30T03:29:24;20.80;25.20
84114;DHT22;74483;48.846;2.358;2024-01-30T03:31:49;20.80;25.30
84114;DHT22;74483;48.846;2.358;2024-01-30T03:34:15;20.80;25.20
84114;DHT22;74483;48.846;2.358;2024-01-30T03:36:40;20.80;25.20
84114;DHT22;74483;48.846;2.358;2024-01-30T03:39:06;20.80;25.30
84114;DHT22;74483;48.846;2.358;2024-01-30T03:41:32;20.80;25.20
84114;DHT22;74483;48.846;2.358;2024-01-30T03:43:58;20.80;25.30
84114;DHT22;74483;48.846;2.358;2024-01-30T03:46:24;20.80;25.30
84114;DHT22;74483;48.846;2.358;2024-01-30T03:48:50;20.80;25.30
84114;DHT22;74483;48.846;2.358;2024-01-30T03:51:15;20.80;25.30
84114;DHT22;74483;48.846;2.358;2024-01-30T03:53:44;20.80;25.40
84114;DHT22;74483;48.846;2.358;2024-01-30T03:56:12;20.80;25.30
84114;DHT22;74483;48.846;2.358;2024-01-30T03:58:39;20.80;25.30
84114;DHT22;74483;48.846;2.358;2024-01-30T04:01:05;20.80;25.30
84114;DHT22;74483;48.846;2.358;2024-01-30T04:03:30;20.80;25.30
84114;DHT22;74483;48.846;2.358;2024-01-30T04:05:56;20.80;25.40
84114;DHT22;74483;48.846;2.358;2024-01-30T04:08:21;20.70;25.40
84114;DHT22;74483;48.846;2.358;2024-01-30T04:10:47;20.80;25.30
84114;DHT22;74483;48.846;2.358;2024-01-30T04:13:13;20.80;25.40
84114;DHT22;74483;48.846;2.358;2024-01-30T04:15:39;20.80;25.40
84114;DHT22;74483;48.846;2.358;2024-01-30T04:18:05;20.80;25.40
84114;DHT22;74483;48.846;2.358;2024-01-30T04:20:30;20.80;25.40
84114;DHT22;74483;48.846;2.358;2024-01-30T04:22:56;20.70;25.40
84114;DHT22;74483;48.846;2.358;2024-01-30T04:25:22;20.80;25.40
84114;DHT22;74483;48.846;2.358;2024-01-30T04:27:47;20.70;25.40
84114;DHT22;74483;48.846;2.358;2024-01-30T04:30:13;20.70;25.40
84114;DHT22;74483;48.846;2.358;2024-01-30T04:32:39;20.70;25.50
84114;DHT22;74483;48.846;2.358;2024-01-30T04:35:04;20.70;25.50
84114;DHT22;74483;48.846;2.358;2024-01-30T04:37:30;20.70;25.50
84114;DHT22;74483;48.846;2.358;2024-01-30T04:39:56;20.70;25.50
84114;DHT22;74483;48.846;2.358;2024-01-30T04:42:22;20.70;25.50
84114;DHT22;74483;48.846;2.358;2024-01-30T04:44:47;20.70;25.50
84114;DHT22;74483;48.846;2.358;2024-01-30T04:47:13;20.70;25.50
84114;DHT22;74483;48.846;2.358;2024-01-30T04:49:39;20.70;26.20
84114;DHT22;74483;48.846;2.358;2024-01-30T04:52:06;20.70;25.60
84114;DHT22;74483;48.846;2.358;2024-01-30T04:54:32;20.70;26.20
84114;DHT22;74483;48.846;2.358;2024-01-30T04:56:57;20.70;25.50
84114;DHT22;74483;48.846;2.358;2024-01-30T04:59:23;20.70;25.50
84114;DHT22;74483;48.846;2.358;2024-01-30T05:01:49;20.70;25.60
84114;DHT22;74483;48.846;2.358;2024-01-30T05:04:15;20.70;25.60
84114;DHT22;74483;48.846;2.358;2024-01-30T05:06:40;20.70;25.60
84114;DHT22;74483;48.846;2.358;2024-01-30T05:09:06;20.70;25.60
84114;DHT22;74483;48.846;2.358;2024-01-30T05:11:37;20.70;25.60
84114;DHT22;74483;48.846;2.358;2024-01-30T05:14:03;20.70;25.60
84114;DHT22;74483;48.846;2.358;2024-01-30T05:16:29;20.70;25.60
84114;DHT22;74483;48.846;2.358;2024-01-30T05:18:54;20.70;25.60
84114;DHT22;74483;48.846;2.358;2024-01-30T05:21:20;20.70;25.70
84114;DHT22;74483;48.846;2.358;2024-01-30T05:23:45;20.70;25.70
84114;DHT22;74483;48.846;2.358;2024-01-30T05:26:11;20.70;25.70
84114;DHT22;74483;48.846;2.358;2024-01-30T05:28:37;20.70;25.70
84114;DHT22;74483;48.846;2.358;2024-01-30T05:31:03;20.70;25.70
84114;DHT22;74483;48.846;2.358;2024-01-30T05:33:28;20.70;25.70
84114;DHT22;74483;48.846;2.358;2024-01-30T05:35:54;20.70;25.70
84114;DHT22;74483;48.846;2.358;2024-01-30T05:38:20;20.70;25.70
84114;DHT22;74483;48.846;2.358;2024-01-30T05:40:46;20.70;25.70
84114;DHT22;74483;48.846;2.358;2024-01-30T05:43:12;20.70;25.70
84114;DHT22;74483;48.846;2.358;2024-01-30T05:45:37;20.70;25.70
84114;DHT22;74483;48.846;2.358;2024-01-30T05:48:04;20.70;25.70
84114;DHT22;74483;48.846;2.358;2024-01-30T05:50:30;20.70;25.80
84114;DHT22;74483;48.846;2.358;2024-01-30T05:52:55;20.70;25.70
84114;DHT22;74483;48.846;2.358;2024-01-30T05:55:21;20.70;25.80
84114;DHT22;74483;48.846;2.358;2024-01-30T05:57:46;20.70;25.80
84114;DHT22;74483;48.846;2.358;2024-01-30T06:00:12;20.70;26.10
84114;DHT22;74483;48.846;2.358;2024-01-30T06:02:38;20.70;25.80
84114;DHT22;74483;48.846;2.358;2024-01-30T06:05:04;20.70;25.80
84114;DHT22;74483;48.846;2.358;2024-01-30T06:07:29;20.70;25.80
84114;DHT22;74483;48.846;2.358;2024-01-30T06:09:55;20.70;25.80
84114;DHT22;74483;48.846;2.358;2024-01-30T06:12:21;20.70;25.90
84114;DHT22;74483;48.846;2.358;2024-01-30T06:14:46;20.70;25.80
84114;DHT22;74483;48.846;2.358;2024-01-30T06:17:12;20.70;25.80
84114;DHT22;74483;48.846;2.358;2024-01-30T06:19:40;20.70;25.80
84114;DHT22;74483;48.846;2.358;2024-01-30T06:22:07;20.70;25.80
84114;DHT22;74483;48.846;2.358;2024-01-30T06:24:32;20.70;25.80
84114;DHT22;74483;48.846;2.358;2024-01-30T06:26:59;20.70;25.80
84114;DHT22;74483;48.846;2.358;2024-01-30T06:29:25;20.70;25.90
84114;DHT22;74483;48.846;2.358;2024-01-30T06:31:52;20.70;25.80
84114;DHT22;74483;48.846;2.358;2024-01-30T06:34:18;20.70;25.80
84114;DHT22;74483;48.846;2.358;2024-01-30T06:36:43;20.80;25.80
84114;DHT22;74483;48.846;2.358;2024-01-30T06:39:09;20.70;25.80
84114;DHT22;74483;48.846;2.358;2024-01-30T06:41:34;20.70;25.80
84114;DHT22;74483;48.846;2.358;2024-01-30T06:44:02;20.80;25.80
84114;DHT22;74483;48.846;2.358;2024-01-30T06:46:29;20.80;25.80
84114;DHT22;74483;48.846;2.358;2024-01-30T06:48:55;20.80;26.50
84114;DHT22;74483;48.846;2.358;2024-01-30T06:51:20;20.80;25.90
84114;DHT22;74483;48.846;2.358;2024-01-30T06:53:46;20.80;25.80
84114;DHT22;74483;48.846;2.358;2024-01-30T06:56:11;20.80;25.80
84114;DHT22;74483;48.846;2.358;2024-01-30T06:58:37;20.80;25.80
84114;DHT22;74483;48.846;2.358;2024-01-30T07:01:02;20.80;25.80
84114;DHT22;74483;48.846;2.358;2024-01-30T07:03:28;20.80;25.80
84114;DHT22;74483;48.846;2.358;2024-01-30T07:05:54;20.80;25.80
84114;DHT22;74483;48.846;2.358;2024-01-30T07:08:19;20.80;25.80
84114;DHT22;74483;48.846;2.358;2024-01-30T07:10:46;20.80;25.80
84114;DHT22;74483;48.846;2.358;2024-01-30T07:13:12;20.90;25.90
84114;DHT22;74483;48.846;2.358;2024-01-30T07:15:38;20.80;25.80
84114;DHT22;74483;48.846;2.358;2024-01-30T07:18:04;20.90;25.90
84114;DHT22;74483;48.846;2.358;2024-01-30T07:20:30;20.90;25.90
84114;DHT22;74483;48.846;2.358;2024-01-30T07:22:58;20.90;25.90
84114;DHT22;74483;48.846;2.358;2024-01-30T07:25:24;20.90;25.90
84114;DHT22;74483;48.846;2.358;2024-01-30T07:27:55;20.90;25.90
84114;DHT22;74483;48.846;2.358;2024-01-30T07:30:21;20.90;25.90
84114;DHT22;74483;48.846;2.358;2024-01-30T07:32:47;21.00;25.90
84114;DHT22;74483;48.846;2.358;2024-01-30T07:35:13;21.00;25.90
84114;DHT22;74483;48.846;2.358;2024-01-30T07:37:39;21.00;25.90
84114;DHT22;74483;48.846;2.358;2024-01-30T07:40:05;21.00;25.80
84114;DHT22;74483;48.846;2.358;2024-01-30T07:42:32;21.00;26.60
84114;DHT22;74483;48.846;2.358;2024-01-30T07:45:16;21.00;27.00
84114;DHT22;74483;48.846;2.358;2024-01-30T07:47:42;21.00;27.30
84114;DHT22;74483;48.846;2.358;2024-01-30T07:50:08;21.00;27.60
84114;DHT22;74483;48.846;2.358;2024-01-30T07:52:34;21.10;27.80
84114;DHT22;74483;48.846;2.358;2024-01-30T07:55:00;21.10;28.00
84114;DHT22;74483;48.846;2.358;2024-01-30T07:57:25;21.10;28.00
84114;DHT22;74483;48.846;2.358;2024-01-30T07:59:51;21.10;28.10
84114;DHT22;74483;48.846;2.358;2024-01-30T08:02:18;21.10;28.10
84114;DHT22;74483;48.846;2.358;2024-01-30T08:04:44;21.10;28.20
84114;DHT22;74483;48.846;2.358;2024-01-30T08:07:14;21.10;28.20
84114;DHT22;74483;48.846;2.358;2024-01-30T08:09:39;21.10;28.30
84114;DHT22;74483;48.846;2.358;2024-01-30T08:12:05;21.10;28.40
84114;DHT22;74483;48.846;2.358;2024-01-30T08:14:30;21.10;28.40
84114;DHT22;74483;48.846;2.358;2024-01-30T08:16:56;21.10;28.40
84114;DHT22;74483;48.846;2.358;2024-01-30T08:19:22;21.10;28.40
84114;DHT22;74483;48.846;2.358;2024-01-30T08:21:47;21.20;29.20
84114;DHT22;74483;48.846;2.358;2024-01-30T08:24:13;21.20;28.50
84114;DHT22;74483;48.846;2.358;2024-01-30T08:26:38;21.20;28.70
84114;DHT22;74483;48.846;2.358;2024-01-30T08:29:04;21.20;28.80
84114;DHT22;74483;48.846;2.358;2024-01-30T08:31:30;21.20;28.80
84114;DHT22;74483;48.846;2.358;2024-01-30T08:33:55;21.30;29.00
84114;DHT22;74483;48.846;2.358;2024-01-30T08:36:21;21.20;28.90
84114;DHT22;74483;48.846;2.358;2024-01-30T08:38:46;21.20;28.90
84114;DHT22;74483;48.846;2.358;2024-01-30T08:41:12;21.30;29.10
84114;DHT22;74483;48.846;2.358;2024-01-30T08:43:38;21.30;29.10
84114;DHT22;74483;48.846;2.358;2024-01-30T08:46:04;21.30;29.00
84114;DHT22;74483;48.846;2.358;2024-01-30T08:48:30;21.30;28.90
84114;DHT22;74483;48.846;2.358;2024-01-30T08:50:55;21.40;28.80
84114;DHT22;74483;48.846;2.358;2024-01-30T08:53:22;21.40;28.70
84114;DHT22;74483;48.846;2.358;2024-01-30T08:55:47;21.40;28.60
84114;DHT22;74483;48.846;2.358;2024-01-30T08:58:13;21.40;28.50
84114;DHT22;74483;48.846;2.358;2024-01-30T09:00:38;21.40;28.50
84114;DHT22;74483;48.846;2.358;2024-01-30T09:03:04;21.50;28.40
84114;DHT22;74483;48.846;2.358;2024-01-30T09:05:30;21.50;28.30
84114;DHT22;74483;48.846;2.358;2024-01-30T09:07:55;21.50;28.40
84114;DHT22;74483;48.846;2.358;2024-01-30T09:10:21;21.50;28.30
84114;DHT22;74483;48.846;2.358;2024-01-30T09:12:47;21.50;28.20
84114;DHT22;74483;48.846;2.358;2024-01-30T09:15:13;21.50;28.20
84114;DHT22;74483;48.846;2.358;2024-01-30T09:17:39;21.50;28.10
84114;DHT22;74483;48.846;2.358;2024-01-30T09:20:05;21.60;28.10
84114;DHT22;74483;48.846;2.358;2024-01-30T09:22:31;21.60;28.00
84114;DHT22;74483;48.846;2.358;2024-01-30T09:24:57;21.60;28.00
84114;DHT22;74483;48.846;2.358;2024-01-30T09:27:23;21.50;28.00
84114;DHT22;74483;48.846;2.358;2024-01-30T09:29:48;21.60;27.90
84114;DHT22;74483;48.846;2.358;2024-01-30T09:32:14;21.60;27.90
84114;DHT22;74483;48.846;2.358;2024-01-30T09:34:39;21.60;27.90
84114;DHT22;74483;48.846;2.358;2024-01-30T09:37:05;21.60;27.80
84114;DHT22;74483;48.846;2.358;2024-01-30T09:39:31;21.60;27.80
84114;DHT22;74483;48.846;2.358;2024-01-30T09:42:17;21.60;27.80
84114;DHT22;74483;48.846;2.358;2024-01-30T09:44:44;21.70;27.80
84114;DHT22;74483;48.846;2.358;2024-01-30T09:47:11;21.70;27.80
84114;DHT22;74483;48.846;2.358;2024-01-30T09:49:38;21.70;27.80
84114;DHT22;74483;48.846;2.358;2024-01-30T09:52:05;21.70;27.70
84114;DHT22;74483;48.846;2.358;2024-01-30T09:54:32;21.70;27.70
84114;DHT22;74483;48.846;2.358;2024-01-30T09:56:58;21.70;27.60
84114;DHT22;74483;48.846;2.358;2024-01-30T09:59:24;21.70;27.60
84114;DHT22;74483;48.846;2.358;2024-01-30T10:01:50;21.70;27.60
84114;DHT22;74483;48.846;2.358;2024-01-30T10:04:17;21.70;27.50
84114;DHT22;74483;48.846;2.358;2024-01-30T10:06:43;21.70;27.50
84114;DHT22;74483;48.846;2.358;2024-01-30T10:09:12;21.80;27.70
84114;DHT22;74483;48.846;2.358;2024-01-30T10:11:38;21.80;27.90
84114;DHT22;74483;48.846;2.358;2024-01-30T10:14:04;21.80;28.00
84114;DHT22;74483;48.846;2.358;2024-01-30T10:16:30;21.80;28.10
84114;DHT22;74483;48.846;2.358;2024-01-30T10:18:56;21.90;28.30
84114;DHT22;74483;48.846;2.358;2024-01-30T10:21:22;21.90;28.30
84114;DHT22;74483;48.846;2.358;2024-01-30T10:23:47;21.90;28.40
84114;DHT22;74483;48.846;2.358;2024-01-30T10:26:13;21.90;28.50
84114;DHT22;74483;48.846;2.358;2024-01-30T10:28:39;21.90;28.50
84114;DHT22;74483;48.846;2.358;2024-01-30T10:31:04;21.90;28.50
84114;DHT22;74483;48.846;2.358;2024-01-30T10:33:30;21.90;28.70
84114;DHT22;74483;48.846;2.358;2024-01-30T10:36:04;21.90;29.00
84114;DHT22;74483;48.846;2.358;2024-01-30T10:38:31;22.00;28.80
84114;DHT22;74483;48.846;2.358;2024-01-30T10:40:58;21.90;28.90
84114;DHT22;74483;48.846;2.358;2024-01-30T10:43:32;22.00;28.80
84114;DHT22;74483;48.846;2.358;2024-01-30T10:46:09;22.00;29.40
84114;DHT22;74483;48.846;2.358;2024-01-30T10:48:42;22.00;28.70
84114;DHT22;74483;48.846;2.358;2024-01-30T10:51:09;22.00;28.70
84114;DHT22;74483;48.846;2.358;2024-01-30T10:53:36;22.10;28.60
84114;DHT22;74483;48.846;2.358;2024-01-30T10:56:03;22.10;28.60
84114;DHT22;74483;48.846;2.358;2024-01-30T10:58:30;22.10;28.50
84114;DHT22;74483;48.846;2.358;2024-01-30T11:00:56;22.10;28.50
84114;DHT22;74483;48.846;2.358;2024-01-30T11:03:24;22.10;28.40
84114;DHT22;74483;48.846;2.358;2024-01-30T11:05:50;22.10;28.50
84114;DHT22;74483;48.846;2.358;2024-01-30T11:08:25;22.10;28.40
84114;DHT22;74483;48.846;2.358;2024-01-30T11:10:57;22.10;28.30
84114;DHT22;74483;48.846;2.358;2024-01-30T11:13:29;22.20;28.20
84114;DHT22;74483;48.846;2.358;2024-01-30T11:15:55;22.20;28.20
84114;DHT22;74483;48.846;2.358;2024-01-30T11:18:24;22.20;28.20
84114;DHT22;74483;48.846;2.358;2024-01-30T11:20:51;22.20;28.00
84114;DHT22;74483;48.846;2.358;2024-01-30T11:23:17;22.20;28.70
84114;DHT22;74483;48.846;2.358;2024-01-30T11:25:44;22.30;28.10
84114;DHT22;74483;48.846;2.358;2024-01-30T11:28:16;22.30;28.00
84114;DHT22;74483;48.846;2.358;2024-01-30T11:30:42;22.30;27.90
84114;DHT22;74483;48.846;2.358;2024-01-30T11:33:12;22.30;27.80
84114;DHT22;74483;48.846;2.358;2024-01-30T11:35:42;22.40;27.70
84114;DHT22;74483;48.846;2.358;2024-01-30T11:38:10;22.40;28.10
84114;DHT22;74483;48.846;2.358;2024-01-30T11:40:38;22.30;28.00
84114;DHT22;74483;48.846;2.358;2024-01-30T11:43:05;22.40;28.00
84114;DHT22;74483;48.846;2.358;2024-01-30T11:45:31;22.40;28.00
84114;DHT22;74483;48.846;2.358;2024-01-30T11:47:58;22.40;28.10
84114;DHT22;74483;48.846;2.358;2024-01-30T11:50:29;22.40;28.10
84114;DHT22;74483;48.846;2.358;2024-01-30T11:52:56;22.40;28.10
84114;DHT22;74483;48.846;2.358;2024-01-30T11:55:23;22.40;28.10
84114;DHT22;74483;48.846;2.358;2024-01-30T11:57:49;22.50;28.20
84114;DHT22;74483;48.846;2.358;2024-01-30T12:00:16;22.50;28.30
84114;DHT22;74483;48.846;2.358;2024-01-30T12:02:43;22.50;28.30
84114;DHT22;74483;48.846;2.358;2024-01-30T12:05:09;22.50;28.20
84114;DHT22;74483;48.846;2.358;2024-01-30T12:07:35;22.50;28.20
84114;DHT22;74483;48.846;2.358;2024-01-30T12:10:01;22.60;28.90
84114;DHT22;74483;48.846;2.358;2024-01-30T12:12:28;22.60;28.20
84114;DHT22;74483;48.846;2.358;2024-01-30T12:14:55;22.60;28.10
84114;DHT22;74483;48.846;2.358;2024-01-30T12:17:32;22.60;28.10
84114;DHT22;74483;48.846;2.358;2024-01-30T12:22:41;22.70;28.60
84114;DHT22;74483;48.846;2.358;2024-01-30T12:25:08;22.70;27.90
84114;DHT22;74483;48.846;2.358;2024-01-30T12:27:35;22.70;27.70
84114;DHT22;74483;48.846;2.358;2024-01-30T12:30:04;22.80;27.60
84114;DHT22;74483;48.846;2.358;2024-01-30T12:32:30;22.80;27.50
84114;DHT22;74483;48.846;2.358;2024-01-30T12:34:56;22.70;27.50
84114;DHT22;74483;48.846;2.358;2024-01-30T12:37:22;22.80;27.40
84114;DHT22;74483;48.846;2.358;2024-01-30T12:39:53;22.80;27.40
84114;DHT22;74483;48.846;2.358;2024-01-30T12:42:20;22.80;27.40
84114;DHT22;74483;48.846;2.358;2024-01-30T12:44:47;22.80;27.30
84114;DHT22;74483;48.846;2.358;2024-01-30T12:47:13;22.80;27.30
84114;DHT22;74483;48.846;2.358;2024-01-30T12:49:42;22.80;27.40
84114;DHT22;74483;48.846;2.358;2024-01-30T12:52:08;22.80;27.40
84114;DHT22;74483;48.846;2.358;2024-01-30T12:54:34;22.80;27.40
84114;DHT22;74483;48.846;2.358;2024-01-30T12:57:00;22.90;28.20
84114;DHT22;74483;48.846;2.358;2024-01-30T12:59:25;22.90;27.60
84114;DHT22;74483;48.846;2.358;2024-01-30T13:01:51;22.90;27.70
84114;DHT22;74483;48.846;2.358;2024-01-30T13:04:17;22.90;27.70
84114;DHT22;74483;48.846;2.358;2024-01-30T13:06:42;22.90;27.80
84114;DHT22;74483;48.846;2.358;2024-01-30T13:09:08;22.90;27.80
84114;DHT22;74483;48.846;2.358;2024-01-30T13:11:34;22.90;27.90
84114;DHT22;74483;48.846;2.358;2024-01-30T13:14:00;22.90;27.90
84114;DHT22;74483;48.846;2.358;2024-01-30T13:16:26;23.00;27.90
84114;DHT22;74483;48.846;2.358;2024-01-30T13:18:52;22.90;28.00
84114;DHT22;74483;48.846;2.358;2024-01-30T13:21:19;23.00;28.00
84114;DHT22;74483;48.846;2.358;2024-01-30T13:23:46;23.00;28.00
84114;DHT22;74483;48.846;2.358;2024-01-30T13:26:11;23.10;28.00
84114;DHT22;74483;48.846;2.358;2024-01-30T13:28:37;23.00;27.90
84114;DHT22;74483;48.846;2.358;2024-01-30T13:31:03;23.00;27.90
84114;DHT22;74483;48.846;2.358;2024-01-30T13:33:28;23.00;27.80
84114;DHT22;74483;48.846;2.358;2024-01-30T13:35:54;23.10;27.80
84114;DHT22;74483;48.846;2.358;2024-01-30T13:38:20;23.10;27.80
84114;DHT22;74483;48.846;2.358;2024-01-30T13:40:45;23.00;27.80
84114;DHT22;74483;48.846;2.358;2024-01-30T13:43:12;23.10;27.90
84114;DHT22;74483;48.846;2.358;2024-01-30T13:45:37;23.10;27.90
84114;DHT22;74483;48.846;2.358;2024-01-30T13:48:03;23.10;27.90
84114;DHT22;74483;48.846;2.358;2024-01-30T13:50:29;23.10;28.00
84114;DHT22;74483;48.846;2.358;2024-01-30T13:52:54;23.10;28.00
84114;DHT22;74483;48.846;2.358;2024-01-30T13:55:20;23.10;28.00
84114;DHT22;74483;48.846;2.358;2024-01-30T13:57:46;23.20;28.00
84114;DHT22;74483;48.846;2.358;2024-01-30T14:00:12;23.20;28.10
84114;DHT22;74483;48.846;2.358;2024-01-30T14:02:41;23.20;28.10
84114;DHT22;74483;48.846;2.358;2024-01-30T14:05:07;23.20;28.10
84114;DHT22;74483;48.846;2.358;2024-01-30T14:07:33;23.20;28.10
84114;DHT22;74483;48.846;2.358;2024-01-30T14:09:59;23.30;28.20
84114;DHT22;74483;48.846;2.358;2024-01-30T14:12:24;23.20;28.20
84114;DHT22;74483;48.846;2.358;2024-01-30T14:14:50;23.20;28.20
84114;DHT22;74483;48.846;2.358;2024-01-30T14:17:16;23.30;28.10
84114;DHT22;74483;48.846;2.358;2024-01-30T14:19:42;23.30;28.30
84114;DHT22;74483;48.846;2.358;2024-01-30T14:22:09;23.30;28.20
84114;DHT22;74483;48.846;2.358;2024-01-30T14:43:03;23.20;27.80
84114;DHT22;74483;48.846;2.358;2024-01-30T14:45:29;23.20;27.90
84114;DHT22;74483;48.846;2.358;2024-01-30T14:47:57;23.20;27.80
84114;DHT22;74483;48.846;2.358;2024-01-30T14:50:23;23.20;27.70
84114;DHT22;74483;48.846;2.358;2024-01-30T14:52:49;23.20;27.60
84114;DHT22;74483;48.846;2.358;2024-01-30T14:55:14;23.20;27.60
84114;DHT22;74483;48.846;2.358;2024-01-30T14:57:40;23.20;27.60
84114;DHT22;74483;48.846;2.358;2024-01-30T15:00:08;23.20;27.50
84114;DHT22;74483;48.846;2.358;2024-01-30T15:02:34;23.20;27.50
84114;DHT22;74483;48.846;2.358;2024-01-30T15:05:00;23.20;27.50
84114;DHT22;74483;48.846;2.358;2024-01-30T15:07:27;23.20;27.40
84114;DHT22;74483;48.846;2.358;2024-01-30T15:09:54;23.20;27.40
84114;DHT22;74483;48.846;2.358;2024-01-30T15:12:19;23.20;27.40
84114;DHT22;74483;48.846;2.358;2024-01-30T15:14:45;23.20;27.40
84114;DHT22;74483;48.846;2.358;2024-01-30T15:17:19;23.20;27.40
84114;DHT22;74483;48.846;2.358;2024-01-30T15:19:47;23.20;27.40
84114;DHT22;74483;48.846;2.358;2024-01-30T15:22:13;23.20;27.50
84114;DHT22;74483;48.846;2.358;2024-01-30T15:24:39;23.20;27.60
84114;DHT22;74483;48.846;2.358;2024-01-30T15:27:04;23.20;27.60
84114;DHT22;74483;48.846;2.358;2024-01-30T15:29:30;23.20;27.70
84114;DHT22;74483;48.846;2.358;2024-01-30T15:31:56;23.20;27.70
84114;DHT22;74483;48.846;2.358;2024-01-30T15:34:21;23.20;27.80
84114;DHT22;74483;48.846;2.358;2024-01-30T15:36:47;23.20;27.90
84114;DHT22;74483;48.846;2.358;2024-01-30T15:39:13;23.20;27.90
84114;DHT22;74483;48.846;2.358;2024-01-30T15:41:41;23.20;28.00
84114;DHT22;74483;48.846;2.358;2024-01-30T15:44:06;23.20;28.10